Time;durP1;ratioP1;P1;durP2;ratioP2;P2;SDS_P1;SDS_P2;PMS_P1;PMS_P2;Temp;Humidity;BMP_temperature;BMP_pressure;BME280_temperature;BME280_humidity;BME280_pressure;Samples;Min_cycle;Max_cycle;Signal;HPM_P1;HPM_P2
2022/01/25 00:09:08;;;;;;;;;57.20;47.80;;;;;7.92;57.07;102661.50;2112711;27;47652;-61
2022/01/25 00:10:37;;;;;;;;;58.40;49.20;;;;;7.92;57.24;102665.91;2112909;27;46830;-62
2022/01/25 00:29:55;;;;;;;;;60.60;50.20;;;;;7.85;57.12;102664.88;2109159;27;47654;-61
2022/01/25 00:31:40;;;;;;;;;61.00;50.20;;;;;7.83;57.09;102663.94;2112865;27;45407;-60
2022/01/25 00:32:21;;;;;;;;;61.20;51.40;;;;;7.84;57.28;102664.84;2105425;27;47874;-61
2022/01/25 00:33:22;;;;;;;;;63.20;50.00;;;;;7.83;57.34;102668.34;2104429;27;47610;-62
2022/01/25 00:34:22;;;;;;;;;59.50;50.25;;;;;7.84;57.40;102668.38;2104868;27;47393;-61
2022/01/25 00:35:23;;;;;;;;;60.25;48.75;;;;;7.82;57.29;102667.44;2106795;27;47347;-61
2022/01/25 00:36:26;;;;;;;;;60.00;49.00;;;;;7.82;57.19;102670.09;2104509;27;47636;-60
2022/01/25 00:37:26;;;;;;;;;58.20;48.40;;;;;7.82;57.16;102664.81;2104156;27;47926;-61
2022/01/25 00:38:27;;;;;;;;;55.50;47.50;;;;;7.82;57.33;102663.91;2104227;27;47597;-62
2022/01/25 00:39:27;;;;;;;;;60.75;49.75;;;;;7.82;57.21;102669.22;2107193;27;47534;-61
2022/01/25 00:40:28;;;;;;;;;62.50;51.50;;;;;7.81;57.34;102670.06;2121019;27;47727;-61
2022/01/25 00:41:28;;;;;;;;;62.50;51.25;;;;;7.81;56.88;102668.31;2112219;27;47484;-61
2022/01/25 00:42:29;;;;;;;;;61.00;50.50;;;;;7.80;57.34;102663.00;2112037;27;47640;-61
2022/01/25 00:43:30;;;;;;;;;62.75;52.25;;;;;7.79;57.05;102659.47;2104523;27;48116;-61
2022/01/25 00:44:35;;;;;;;;;63.00;51.40;;;;;7.79;57.13;102669.16;2112855;27;47387;-61
2022/01/25 00:45:35;;;;;;;;;62.40;50.20;;;;;7.77;57.28;102669.13;2112731;27;45936;-61
2022/01/25 00:46:36;;;;;;;;;65.50;52.00;;;;;7.76;57.41;102675.28;2112788;27;47489;-61
2022/01/25 00:47:40;;;;;;;;;65.50;52.25;;;;;7.76;57.10;102669.09;2112738;27;47054;-60
2022/01/25 00:48:45;;;;;;;;;70.20;56.00;;;;;7.73;56.98;102666.34;2112640;27;47516;-61
2022/01/25 00:49:51;;;;;;;;;66.00;53.00;;;;;7.73;57.25;102667.25;2118267;27;48121;-61
2022/01/25 00:50:52;;;;;;;;;70.20;55.00;;;;;7.71;57.17;102671.63;2104590;27;47588;-61
2022/01/25 00:54:08;;;;;;;;;67.40;54.20;;;;;7.66;57.29;102666.25;2112347;27;47197;-61
2022/01/25 00:55:11;;;;;;;;;66.00;53.40;;;;;7.65;57.21;102656.53;2112717;27;45947;-61
2022/01/25 00:56:11;;;;;;;;;70.20;56.20;;;;;7.64;57.40;102656.50;2120529;27;47484;-61
2022/01/25 00:57:12;;;;;;;;;66.00;55.25;;;;;7.64;57.45;102660.03;2120515;27;47564;-61
2022/01/25 00:58:12;;;;;;;;;71.00;55.00;;;;;7.64;57.43;102661.78;2109366;27;47354;-61
2022/01/25 00:59:20;;;;;;;;;68.00;53.00;;;;;7.64;57.56;102661.78;2109133;27;47770;-60
2022/01/25 01:00:20;;;;;;;;;64.00;52.40;;;;;7.64;57.42;102660.03;2111627;27;47817;-61
2022/01/25 01:01:22;;;;;;;;;67.50;54.25;;;;;7.65;57.76;102659.19;2112636;27;47871;-60
2022/01/25 01:02:22;;;;;;;;;70.40;54.80;;;;;7.65;57.36;102656.53;2112307;27;47900;-60
2022/01/25 01:03:23;;;;;;;;;69.00;52.50;;;;;7.66;57.47;102654.78;2112743;27;47009;-61
2022/01/25 01:04:23;;;;;;;;;64.75;54.25;;;;;7.66;57.47;102653.03;2112665;27;47306;-59
2022/01/25 01:05:25;;;;;;;;;62.75;52.25;;;;;7.66;57.47;102653.03;2112625;27;47582;-60
2022/01/25 01:06:26;;;;;;;;;70.80;56.20;;;;;7.66;57.57;102658.31;2112511;27;47323;-61
2022/01/25 01:07:26;;;;;;;;;68.00;55.00;;;;;7.66;57.64;102655.69;2107313;27;47521;-61
2022/01/25 01:08:27;;;;;;;;;65.50;52.75;;;;;7.67;57.48;102652.16;2109931;27;47155;-61
2022/01/25 01:09:31;;;;;;;;;75.75;56.25;;;;;7.68;57.38;102656.59;2112484;27;47384;-61
2022/01/25 01:10:31;;;;;;;;;65.80;54.60;;;;;7.67;57.44;102654.81;2112657;27;47404;-62
2022/01/25 01:11:41;;;;;;;;;68.00;54.00;;;;;7.66;57.66;102655.69;2112421;27;47694;-60
2022/01/25 01:14:15;;;;;;;;;67.40;54.00;;;;;7.68;57.49;102655.69;2112321;27;48208;-62
2022/01/25 01:29:18;;;;;;;;;70.80;53.40;;;;;7.65;57.33;102660.94;2112594;27;47598;-60
2022/01/25 01:31:35;;;;;;;;;64.20;53.00;;;;;7.65;57.44;102660.94;2119879;27;45585;-61
2022/01/25 01:37:48;;;;;;;;;70.25;55.50;;;;;7.58;57.20;102662.53;2112422;27;47160;-61
2022/01/25 01:39:19;;;;;;;;;64.40;53.40;;;;;7.56;57.22;102660.72;2112977;27;48351;-61
2022/01/25 01:43:36;;;;;;;;;71.00;56.00;;;;;7.52;57.14;102665.06;2112142;27;47434;-61
2022/01/25 01:45:05;;;;;;;;;70.60;56.00;;;;;7.51;57.04;102665.03;2112107;27;47756;-62
2022/01/25 01:47:20;;;;;;;;;67.40;54.40;;;;;7.48;57.11;102670.22;2108338;27;47903;-61
2022/01/25 01:48:29;;;;;;;;;71.20;56.80;;;;;7.46;56.94;102667.53;2104581;27;47469;-61
2022/01/25 01:49:37;;;;;;;;;69.60;55.60;;;;;7.44;57.12;102669.25;2112528;27;47346;-61
2022/01/25 01:50:39;;;;;;;;;63.60;51.80;;;;;7.42;56.72;102675.38;2108812;27;46695;-61
2022/01/25 01:51:43;;;;;;;;;68.40;55.00;;;;;7.40;57.01;102674.47;2112128;27;47875;-61
2022/01/25 01:52:44;;;;;;;;;69.60;54.20;;;;;7.37;56.98;102678.81;2111952;27;47205;-61
2022/01/25 01:53:45;;;;;;;;;72.75;55.75;;;;;7.37;57.06;102675.28;2112255;27;47563;-60
2022/01/25 01:54:45;;;;;;;;;69.40;54.40;;;;;7.35;57.07;102675.22;2112174;27;47450;-61
2022/01/25 01:55:46;;;;;;;;;70.00;55.75;;;;;7.33;56.87;102671.66;2111782;27;47896;-61
2022/01/25 01:56:47;;;;;;;;;68.20;56.00;;;;;7.32;57.02;102676.91;2107795;27;47613;-61
2022/01/25 01:57:49;;;;;;;;;73.00;58.00;;;;;7.31;57.10;102676.03;2112316;27;47530;-62
2022/01/25 01:58:55;;;;;;;;;73.20;57.80;;;;;7.30;57.25;102676.00;2112006;27;48104;-61
2022/01/25 01:59:55;;;;;;;;;71.40;55.60;;;;;7.29;56.94;102664.53;2107827;27;46882;-62
2022/01/25 02:00:56;;;;;;;;;70.75;56.25;;;;;7.28;57.20;102675.97;2111970;27;47652;-62
2022/01/25 02:01:57;;;;;;;;;69.67;54.67;;;;;7.28;57.30;102677.72;2112260;27;47088;-61
2022/01/25 02:02:59;;;;;;;;;70.25;56.75;;;;;7.27;57.21;102673.28;2112150;27;47044;-60
2022/01/25 02:04:01;;;;;;;;;71.60;56.60;;;;;7.26;57.14;102666.22;2112110;27;46585;-61
2022/01/25 02:05:03;;;;;;;;;74.20;58.80;;;;;7.24;56.90;102674.13;2113632;27;47314;-62
2022/01/25 02:06:03;;;;;;;;;68.60;55.60;;;;;7.22;57.20;102667.88;2113890;27;47404;-60
2022/01/25 02:07:04;;;;;;;;;69.00;52.75;;;;;7.22;57.10;102673.16;2113767;27;47152;-60
2022/01/25 02:08:05;;;;;;;;;64.75;53.00;;;;;7.20;56.98;102672.25;2113739;27;47004;-61
2022/01/25 02:09:07;;;;;;;;;72.25;56.75;;;;;7.19;57.33;102678.38;2113378;27;47474;-58
2022/01/25 02:10:09;;;;;;;;;69.20;55.20;;;;;7.17;57.13;102677.44;2113205;27;47453;-61
2022/01/25 02:11:10;;;;;;;;;68.80;55.20;;;;;7.17;57.26;102677.44;2113560;27;47825;-62
2022/01/25 02:12:10;;;;;;;;;71.50;56.25;;;;;7.17;57.19;102677.44;2113008;27;46105;-61
2022/01/25 02:13:12;;;;;;;;;69.00;55.50;;;;;7.16;57.16;102686.22;2113220;27;47887;-61
2022/01/25 02:14:15;;;;;;;;;77.20;61.00;;;;;7.16;57.22;102685.34;2113868;27;47377;-60
2022/01/25 02:15:16;;;;;;;;;70.00;55.80;;;;;7.15;57.08;102681.81;2113146;27;47687;-61
2022/01/25 02:16:54;;;;;;;;;70.75;57.00;;;;;7.15;57.39;102683.56;2111484;27;47855;-61
2022/01/25 02:17:55;;;;;;;;;67.00;54.40;;;;;7.12;57.16;102673.81;2107648;27;47445;-61
2022/01/25 02:22:57;;;;;;;;;73.60;57.60;;;;;7.06;56.82;102682.47;2112902;27;47435;-61
2022/01/25 02:23:57;;;;;;;;;74.25;58.25;;;;;7.05;57.03;102677.16;2113597;27;46401;-61
2022/01/25 02:24:58;;;;;;;;;67.75;55.00;;;;;7.03;57.11;102681.50;2113791;27;47532;-61
2022/01/25 02:26:01;;;;;;;;;68.00;54.25;;;;;7.02;57.34;102685.00;2113378;27;46893;-62
2022/01/25 02:27:03;;;;;;;;;67.20;54.80;;;;;7.00;57.50;102684.09;2106783;27;47504;-61
2022/01/25 02:28:04;;;;;;;;;69.20;55.20;;;;;6.99;57.18;102677.91;2113664;27;47671;-60
2022/01/25 02:29:04;;;;;;;;;65.50;54.25;;;;;6.98;57.20;102681.38;2113382;27;46885;-61
2022/01/25 02:30:05;;;;;;;;;69.50;56.25;;;;;6.97;57.41;102682.25;2113006;27;47756;-61
2022/01/25 02:31:08;;;;;;;;;65.25;53.00;;;;;6.96;57.22;102680.47;2113409;27;47692;-61
2022/01/25 02:32:10;;;;;;;;;65.20;53.20;;;;;6.96;57.29;102682.22;2112351;27;47834;-61
2022/01/25 02:33:11;;;;;;;;;69.20;53.80;;;;;6.93;57.13;102676.88;2109346;27;48303;-61
2022/01/25 02:34:11;;;;;;;;;68.50;54.25;;;;;6.92;57.07;102683.00;2113078;27;47421;-62
2022/01/25 02:35:12;;;;;;;;;66.50;52.50;;;;;6.91;57.11;102678.56;2113478;27;47356;-61
2022/01/25 02:36:25;;;;;;;;;62.00;49.00;;;;;6.89;57.58;102678.53;2110221;27;46744;-61
2022/01/25 02:37:26;;;;;;;;;69.00;54.60;;;;;6.86;57.32;102681.09;2105837;27;48209;-60
2022/01/25 02:38:29;;;;;;;;;67.25;53.75;;;;;6.87;57.49;102688.19;2113000;27;46136;-61
2022/01/25 02:39:30;;;;;;;;;70.80;55.80;;;;;6.86;57.19;102681.09;2113485;27;47862;-60
2022/01/25 02:40:31;;;;;;;;;57.80;47.40;;;;;6.85;57.46;102681.03;2113364;27;47588;-61
2022/01/25 02:41:33;;;;;;;;;66.00;54.50;;;;;6.83;57.54;102680.13;2106561;27;47420;-61
2022/01/25 02:42:33;;;;;;;;;67.00;52.80;;;;;6.84;57.47;102681.91;2107593;27;47461;-61
2022/01/25 02:43:35;;;;;;;;;66.25;53.00;;;;;6.83;57.68;102682.75;2113703;27;47496;-61
2022/01/25 02:44:36;;;;;;;;;63.40;51.80;;;;;6.81;57.55;102681.84;2113253;27;47644;-61
2022/01/25 02:45:37;;;;;;;;;67.20;53.20;;;;;6.80;57.62;102675.66;2109874;27;47165;-62
2022/01/25 02:49:04;;;;;;;;;67.80;54.20;;;;;6.74;57.22;102688.72;2116019;27;47692;-61
2022/01/25 02:50:05;;;;;;;;;62.60;50.40;;;;;6.72;57.50;102690.41;2112897;27;46186;-61
2022/01/25 02:51:05;;;;;;;;;68.00;53.00;;;;;6.70;57.70;102686.84;2114003;27;47237;-61
2022/01/25 02:52:06;;;;;;;;;71.75;55.00;;;;;6.68;57.46;102684.16;2113359;27;47415;-60
2022/01/25 02:53:06;;;;;;;;;63.75;50.75;;;;;6.67;58.09;102681.47;2113275;27;47399;-61
2022/01/25 02:54:08;;;;;;;;;63.75;51.50;;;;;6.66;57.60;102682.34;2112514;27;47128;-60
2022/01/25 02:55:09;;;;;;;;;67.60;53.80;;;;;6.65;57.78;102697.28;2112740;27;47324;-60
2022/01/25 02:56:09;;;;;;;;;65.00;51.75;;;;;6.63;57.17;102684.91;2113505;27;47130;-60
2022/01/25 02:57:09;;;;;;;;;61.50;50.50;;;;;6.62;57.53;102691.94;2113011;27;47808;-61
2022/01/25 02:58:10;;;;;;;;;67.00;54.00;;;;;6.60;57.55;102680.41;2110502;27;45130;-61
2022/01/25 02:59:12;;;;;;;;;64.75;53.25;;;;;6.59;57.64;102688.28;2111333;27;47657;-61
2022/01/25 03:00:15;;;;;;;;;63.00;50.80;;;;;6.59;57.70;102689.19;2113454;27;47248;-61
2022/01/25 03:01:16;;;;;;;;;68.20;53.40;;;;;6.57;57.76;102687.38;2113770;27;47118;-61
2022/01/25 03:02:17;;;;;;;;;65.40;51.80;;;;;6.57;57.43;102685.63;2112616;27;47214;-61
2022/01/25 03:03:18;;;;;;;;;67.20;50.60;;;;;6.56;57.55;102680.31;2112714;27;47327;-62
2022/01/25 03:04:21;;;;;;;;;65.00;51.75;;;;;6.55;57.48;102684.69;2112913;27;47401;-61
2022/01/25 03:05:21;;;;;;;;;61.00;49.60;;;;;6.54;57.38;102689.94;2112191;27;48240;-62
2022/01/25 03:06:23;;;;;;;;;65.50;53.75;;;;;6.53;57.70;102685.50;2112271;27;48211;-61
2022/01/25 03:07:23;;;;;;;;;59.40;48.80;;;;;6.51;57.76;102687.22;2109924;27;48134;-60
2022/01/25 03:08:24;;;;;;;;;66.25;53.75;;;;;6.49;57.75;102687.19;2107106;27;47038;-60
2022/01/25 03:09:24;;;;;;;;;60.75;49.00;;;;;6.49;57.89;102684.56;2112980;27;47107;-61
2022/01/25 03:10:34;;;;;;;;;62.50;50.25;;;;;6.46;57.91;102685.34;2112482;27;46630;-61
2022/01/25 03:11:35;;;;;;;;;60.00;47.60;;;;;6.44;57.76;102691.44;2111802;27;47504;-61
2022/01/25 03:12:45;;;;;;;;;66.00;52.50;;;;;6.43;57.60;102693.16;2112851;27;47516;-61
2022/01/25 03:13:56;;;;;;;;;49.60;43.80;;;;;6.41;57.64;102688.72;2108968;27;47531;-61
2022/01/25 03:15:23;;;;;;;;;62.40;50.20;;;;;6.39;58.00;102693.94;2119271;27;45666;-61
2022/01/25 03:16:38;;;;;;;;;64.00;49.80;;;;;6.37;57.67;102695.66;2116565;27;47829;-61
2022/01/25 03:17:46;;;;;;;;;65.20;51.20;;;;;6.37;57.68;102695.66;2113555;27;46746;-61
2022/01/25 03:18:48;;;;;;;;;62.80;50.80;;;;;6.36;57.97;102699.16;2112726;27;47818;-61
2022/01/25 03:20:01;;;;;;;;;59.20;50.40;;;;;6.35;57.89;102686.81;2112781;27;47687;-61
2022/01/25 03:23:32;;;;;;;;;58.80;48.80;;;;;6.33;58.12;102692.88;2112185;27;47538;-60
2022/01/25 03:24:33;;;;;;;;;59.00;48.60;;;;;6.31;57.94;102689.31;2107288;27;47568;-62
2022/01/25 03:25:33;;;;;;;;;56.50;48.25;;;;;6.32;58.36;102693.72;2105281;27;47172;-62
2022/01/25 03:26:35;;;;;;;;;58.50;49.50;;;;;6.31;57.95;102690.19;2111883;27;47745;-62
2022/01/25 03:27:36;;;;;;;;;59.40;48.00;;;;;6.30;57.88;102687.53;2110999;27;47849;-61
2022/01/25 03:28:36;;;;;;;;;58.25;47.75;;;;;6.29;58.02;102681.34;2105353;27;47570;-61
2022/01/25 03:29:37;;;;;;;;;57.75;47.25;;;;;6.28;58.21;102684.84;2105535;27;47126;-61
2022/01/25 03:30:37;;;;;;;;;62.25;51.75;;;;;6.27;58.34;102683.06;2104565;27;47559;-62
2022/01/25 03:31:38;;;;;;;;;58.50;48.25;;;;;6.26;58.01;102676.00;2111102;27;47559;-61
2022/01/25 03:32:39;;;;;;;;;61.00;48.75;;;;;6.25;57.92;102679.50;2113002;27;47470;-61
2022/01/25 03:33:40;;;;;;;;;55.50;46.50;;;;;6.23;57.90;102675.94;2111805;27;47835;-60
2022/01/25 03:34:40;;;;;;;;;58.60;49.20;;;;;6.24;58.11;102677.72;2104153;27;47470;-60
2022/01/25 03:35:42;;;;;;;;;66.75;52.00;;;;;6.23;58.40;102675.03;2112452;27;47123;-60
2022/01/25 03:36:43;;;;;;;;;55.60;46.80;;;;;6.22;58.23;102670.59;2113388;27;47769;-61
2022/01/25 03:37:43;;;;;;;;;57.75;46.00;;;;;6.22;58.51;102675.88;2112623;27;46647;-61
2022/01/25 03:38:44;;;;;;;;;61.00;48.50;;;;;6.21;58.56;102669.69;2113098;27;47670;-60
2022/01/25 03:39:44;;;;;;;;;63.50;48.50;;;;;6.20;58.71;102676.72;2113189;27;47439;-60
2022/01/25 03:40:46;;;;;;;;;55.50;45.00;;;;;6.20;58.43;102670.56;2113016;27;47527;-61
2022/01/25 03:41:46;;;;;;;;;54.60;46.00;;;;;6.19;58.27;102668.78;2107061;27;47321;-61
2022/01/25 03:42:48;;;;;;;;;59.50;49.00;;;;;6.19;58.07;102660.88;2108560;27;47089;-61
2022/01/25 03:43:53;;;;;;;;;61.20;50.40;;;;;6.19;58.12;102664.38;2112504;27;47556;-60
2022/01/25 03:44:55;;;;;;;;;57.00;44.20;;;;;6.19;58.55;102664.38;2107053;27;47447;-60
2022/01/25 03:47:01;;;;;;;;;59.60;49.00;;;;;6.18;58.47;102662.59;2107714;27;47336;-61
2022/01/25 03:47:41;;;;;;;;;55.80;47.00;;;;;6.18;58.52;102662.59;2098319;27;47513;-61
2022/01/25 03:50:01;;;;;;;;;56.60;47.40;;;;;6.17;58.62;102649.38;2104950;27;47833;-61
2022/01/25 03:51:01;;;;;;;;;58.00;45.25;;;;;6.17;58.59;102658.19;2113200;27;47074;-61
2022/01/25 03:52:03;;;;;;;;;58.00;49.00;;;;;6.17;58.24;102665.22;2113156;27;47570;-61
2022/01/25 03:53:04;;;;;;;;;60.60;51.00;;;;;6.17;58.32;102660.81;2112809;27;48146;-61
2022/01/25 03:54:05;;;;;;;;;55.00;44.40;;;;;6.17;58.25;102655.56;2108823;27;48048;-61
2022/01/25 03:55:06;;;;;;;;;57.75;48.00;;;;;6.17;58.59;102657.28;2104147;28;47372;-60
2022/01/25 03:56:07;;;;;;;;;58.20;48.20;;;;;6.17;58.68;102662.56;2111967;27;47570;-62
2022/01/25 03:57:07;;;;;;;;;59.00;48.25;;;;;6.17;58.70;102654.66;2113038;27;47770;-61
2022/01/25 03:58:08;;;;;;;;;56.75;46.50;;;;;6.17;58.31;102657.28;2112237;27;47355;-61
2022/01/25 03:59:08;;;;;;;;;58.50;47.75;;;;;6.16;58.37;102653.78;2110822;27;47037;-61
2022/01/25 04:00:10;;;;;;;;;57.25;45.50;;;;;6.15;58.56;102654.63;2106441;27;45085;-61
2022/01/25 04:01:11;;;;;;;;;54.60;44.20;;;;;6.16;58.33;102655.50;2113224;27;47616;-61
2022/01/25 04:02:14;;;;;;;;;37.25;32.25;;;;;6.15;58.43;102654.63;2108327;27;46079;-61
2022/01/25 04:03:31;;;;;;;;;58.20;47.60;;;;;6.15;58.44;102656.38;2104641;27;48099;-61
2022/01/25 04:04:33;;;;;;;;;56.80;47.20;;;;;6.15;58.81;102656.38;2104655;27;47612;-61
2022/01/25 04:05:38;;;;;;;;;61.80;49.20;;;;;6.16;58.66;102652.88;2110340;27;47951;-60
2022/01/25 04:06:42;;;;;;;;;54.60;45.80;;;;;6.17;58.80;102655.56;2113074;27;47017;-61
2022/01/25 04:07:48;;;;;;;;;56.60;46.00;;;;;6.17;58.67;102659.94;2112770;27;48014;-60
2022/01/25 04:08:49;;;;;;;;;50.80;42.20;;;;;6.16;58.76;102655.50;2112774;27;47173;-60
2022/01/25 04:09:49;;;;;;;;;56.00;43.00;;;;;6.16;58.57;102651.13;2112818;27;47520;-60
2022/01/25 04:10:50;;;;;;;;;59.75;49.50;;;;;6.15;58.57;102654.63;2111706;27;47314;-60
2022/01/25 04:11:50;;;;;;;;;57.50;47.75;;;;;6.16;58.66;102658.16;2112278;27;47635;-60
2022/01/25 04:12:51;;;;;;;;;52.00;44.25;;;;;6.16;58.95;102658.16;2113319;27;45056;-60
2022/01/25 04:13:54;;;;;;;;;51.50;44.00;;;;;6.17;59.16;102663.47;2112683;27;47685;-61
2022/01/25 04:14:54;;;;;;;;;57.40;46.80;;;;;6.19;58.62;102671.41;2109781;27;47671;-60
2022/01/25 04:15:58;;;;;;;;;48.75;41.00;;;;;6.19;58.82;102659.13;2105535;27;47509;-62
2022/01/25 04:17:03;;;;;;;;;54.60;45.40;;;;;6.19;59.09;102659.13;2107428;27;47702;-61
2022/01/25 04:19:28;;;;;;;;;55.80;46.40;;;;;6.22;58.88;102668.84;2111478;27;47622;-60
2022/01/25 04:20:34;;;;;;;;;58.40;48.00;;;;;6.23;58.69;102669.78;2104318;27;47679;-61
2022/01/25 04:25:14;;;;;;;;;59.80;48.00;;;;;6.23;58.74;102675.03;2112558;27;47496;-60
2022/01/25 04:26:15;;;;;;;;;57.00;47.50;;;;;6.22;58.55;102674.13;2112528;27;47342;-61
2022/01/25 04:27:16;;;;;;;;;55.20;45.00;;;;;6.22;58.68;102674.13;2112209;27;47448;-61
2022/01/25 04:28:16;;;;;;;;;53.00;44.00;;;;;6.21;58.56;102672.34;2112640;27;47322;-61
2022/01/25 04:29:17;;;;;;;;;54.25;45.00;;;;;6.19;58.57;102669.66;2112575;27;47945;-61
2022/01/25 04:30:18;;;;;;;;;58.00;47.75;;;;;6.19;58.28;102679.31;2112839;27;47315;-61
2022/01/25 04:31:20;;;;;;;;;57.00;47.80;;;;;6.18;58.68;102675.78;2112623;27;47101;-61
2022/01/25 04:32:42;;;;;;;;;56.60;46.20;;;;;6.17;58.82;102671.38;2111466;27;47271;-61
2022/01/25 04:33:55;;;;;;;;;53.60;43.00;;;;;6.15;59.06;102667.81;2112541;27;47229;-61
2022/01/25 04:49:35;;;;;;;;;55.60;46.20;;;;;6.08;58.63;102689.56;2108167;27;47268;-61
2022/01/25 04:53:01;;;;;;;;;56.40;45.60;;;;;6.09;59.05;102693.97;2113283;27;47935;-61
2022/01/25 04:55:41;;;;;;;;;53.80;45.40;;;;;6.10;59.29;102693.16;2111911;27;47486;-60
2022/01/25 04:56:43;;;;;;;;;56.40;43.40;;;;;6.10;59.24;102685.25;2112002;27;47478;-61
2022/01/25 04:57:53;;;;;;;;;59.60;46.20;;;;;6.10;59.09;102687.00;2112540;27;47198;-61
2022/01/25 04:59:09;;;;;;;;;54.40;43.80;;;;;6.10;59.16;102682.63;2112681;27;47666;-61
2022/01/25 05:00:19;;;;;;;;;55.20;45.40;;;;;6.11;58.99;102683.50;2112267;27;47628;-61
2022/01/25 05:01:20;;;;;;;;;51.60;42.80;;;;;6.10;58.75;102684.34;2112781;27;47481;-62
2022/01/25 05:04:00;;;;;;;;;53.80;42.20;;;;;6.11;58.82;102679.13;2104501;27;46479;-60
2022/01/25 05:05:10;;;;;;;;;50.80;43.20;;;;;6.12;58.91;102682.66;2109764;27;47665;-61
2022/01/25 05:06:14;;;;;;;;;57.60;46.80;;;;;6.14;58.67;102683.59;2112298;27;47429;-61
2022/01/25 05:07:29;;;;;;;;;55.20;46.20;;;;;6.15;59.10;102682.72;2112392;27;48033;-60
2022/01/25 05:08:36;;;;;;;;;55.80;44.80;;;;;6.15;58.92;102672.19;2112176;27;47023;-61
2022/01/25 05:09:38;;;;;;;;;44.40;37.80;;;;;6.15;58.95;102680.09;2112609;27;46385;-61
2022/01/25 05:10:48;;;;;;;;;53.20;45.60;;;;;6.15;59.26;102680.97;2112364;27;47903;-61
2022/01/25 05:11:50;;;;;;;;;53.20;43.40;;;;;6.16;58.77;102673.97;2112148;27;47746;-61
2022/01/25 05:13:04;;;;;;;;;52.60;44.20;;;;;6.16;58.75;102674.84;2112566;27;47356;-61
2022/01/25 05:15:38;;;;;;;;;54.50;43.50;;;;;6.18;59.36;102685.44;2110462;27;47588;-61
2022/01/25 05:17:00;;;;;;;;;50.20;42.00;;;;;6.18;59.05;102681.06;2112494;27;46931;-60
2022/01/25 05:18:14;;;;;;;;;53.00;42.80;;;;;6.21;58.94;102685.53;2106174;27;45779;-60
2022/01/25 05:22:56;;;;;;;;;62.80;49.60;;;;;6.20;58.96;102682.00;2111184;27;47399;-61
2022/01/25 05:23:57;;;;;;;;;62.00;52.25;;;;;6.20;58.67;102682.00;2111956;27;46778;-61
2022/01/25 05:24:57;;;;;;;;;56.50;46.00;;;;;6.20;58.84;102682.00;2111918;27;47418;-62
2022/01/25 05:25:58;;;;;;;;;57.75;44.25;;;;;6.19;59.01;102680.22;2111518;27;48336;-61
2022/01/25 05:26:58;;;;;;;;;57.00;44.00;;;;;6.19;58.70;102682.84;2111262;27;46605;-62
2022/01/25 05:27:58;;;;;;;;;58.25;45.00;;;;;6.20;58.70;102678.47;2111686;27;47227;-62
2022/01/25 05:28:59;;;;;;;;;46.50;40.50;;;;;6.20;58.45;102678.47;2111427;27;47731;-62
2022/01/25 05:29:59;;;;;;;;;52.50;42.75;;;;;6.20;58.77;102683.72;2111232;27;47739;-61
2022/01/25 05:31:00;;;;;;;;;45.75;39.50;;;;;6.20;58.99;102686.38;2111166;27;48480;-62
2022/01/25 05:32:00;;;;;;;;;50.25;44.00;;;;;6.19;58.91;102681.94;2110999;27;47042;-62
2022/01/25 05:33:01;;;;;;;;;50.50;43.00;;;;;6.19;58.53;102688.13;2112085;27;47264;-61
2022/01/25 05:34:02;;;;;;;;;51.25;42.00;;;;;6.18;58.60;102683.69;2112939;27;47322;-61
2022/01/25 05:35:03;;;;;;;;;55.80;45.00;;;;;6.18;58.83;102686.34;2111539;27;47129;-62
2022/01/25 05:36:04;;;;;;;;;56.60;44.00;;;;;6.18;58.90;102681.06;2111169;27;45487;-61
2022/01/25 05:37:06;;;;;;;;;55.25;42.25;;;;;6.19;58.81;102685.47;2120293;27;47171;-62
2022/01/25 05:38:07;;;;;;;;;55.60;44.60;;;;;6.19;59.22;102689.88;2121098;27;47909;-62
2022/01/25 05:39:21;;;;;;;;;43.00;38.00;;;;;6.19;58.82;102690.75;2114545;27;47636;-61
2022/01/25 05:40:39;;;;;;;;;49.20;42.60;;;;;6.19;59.01;102689.88;2113485;27;46349;-60
2022/01/25 05:41:41;;;;;;;;;41.80;36.80;;;;;6.20;58.74;102691.66;2113686;27;47762;-61
2022/01/25 05:43:50;;;;;;;;;53.60;41.20;;;;;6.20;59.16;102694.28;2113429;27;47268;-60
2022/01/25 05:46:15;;;;;;;;;57.80;47.20;;;;;6.21;58.79;102690.78;2109488;27;47399;-61
2022/01/25 05:47:16;;;;;;;;;50.40;42.40;;;;;6.22;58.85;102689.94;2106148;27;46964;-61
2022/01/25 05:48:16;;;;;;;;;57.50;48.50;;;;;6.23;59.07;102696.13;2105777;27;47093;-61
2022/01/25 05:49:17;;;;;;;;;55.25;45.50;;;;;6.22;58.89;102696.97;2106048;27;47245;-61
2022/01/25 05:50:17;;;;;;;;;55.25;47.00;;;;;6.24;58.89;102695.28;2111571;27;46686;-60
2022/01/25 05:51:17;;;;;;;;;62.50;51.25;;;;;6.24;58.57;102692.66;2108503;27;47291;-61
2022/01/25 05:52:18;;;;;;;;;63.25;51.00;;;;;6.25;58.55;102686.53;2109206;27;47844;-61
2022/01/25 05:53:19;;;;;;;;;67.00;53.25;;;;;6.25;58.81;102691.78;2111727;27;47735;-61
2022/01/25 05:54:19;;;;;;;;;63.25;50.00;;;;;6.25;58.75;102689.16;2110202;27;47467;-62
2022/01/25 05:55:20;;;;;;;;;62.50;50.25;;;;;6.26;58.55;102693.56;2109156;27;47269;-61
2022/01/25 05:56:21;;;;;;;;;63.75;52.00;;;;;6.26;58.43;102685.66;2110286;27;47203;-62
2022/01/25 05:57:21;;;;;;;;;58.00;49.25;;;;;6.26;58.58;102690.94;2108661;27;47594;-61
2022/01/25 05:58:22;;;;;;;;;69.00;53.25;;;;;6.25;58.63;102687.41;2110715;27;48082;-61
2022/01/25 05:59:22;;;;;;;;;62.00;51.50;;;;;6.26;58.96;102685.66;2106320;27;47703;-61
2022/01/25 06:00:22;;;;;;;;;66.25;52.25;;;;;6.26;58.54;102685.66;2104988;27;47784;-62
2022/01/25 06:01:23;;;;;;;;;66.25;53.50;;;;;6.25;58.58;102687.41;2108859;27;47497;-61
2022/01/25 06:02:26;;;;;;;;;63.25;51.50;;;;;6.24;58.50;102684.75;2113025;27;47387;-60
2022/01/25 06:03:27;;;;;;;;;59.60;49.20;;;;;6.25;58.44;102691.78;2112135;27;46291;-61
2022/01/25 06:04:28;;;;;;;;;62.75;50.75;;;;;6.22;58.89;102689.06;2107032;27;47368;-61
2022/01/25 06:05:28;;;;;;;;;61.00;50.75;;;;;6.21;58.46;102685.53;2105846;27;47372;-61
2022/01/25 06:06:29;;;;;;;;;68.25;54.25;;;;;6.23;58.48;102690.88;2108971;27;48107;-60
2022/01/25 06:07:30;;;;;;;;;61.20;51.00;;;;;6.20;58.59;102687.25;2110481;27;48112;-60
2022/01/25 06:08:30;;;;;;;;;63.75;52.00;;;;;6.20;58.48;102684.63;2110875;27;47503;-61
2022/01/25 06:09:30;;;;;;;;;61.00;50.00;;;;;6.20;59.05;102692.53;2105006;27;47227;-61
2022/01/25 06:10:32;;;;;;;;;65.25;52.00;;;;;6.20;58.50;102683.72;2107204;27;46100;-60
2022/01/25 06:11:33;;;;;;;;;65.40;53.40;;;;;6.19;58.75;102685.47;2105186;27;47416;-60
2022/01/25 06:12:34;;;;;;;;;60.80;49.40;;;;;6.18;59.06;102688.06;2113521;27;47555;-60
2022/01/25 06:13:34;;;;;;;;;60.75;50.00;;;;;6.18;58.48;102683.69;2109840;27;46748;-60
2022/01/25 06:14:35;;;;;;;;;63.00;53.50;;;;;6.19;59.00;102682.84;2107639;27;47684;-61
2022/01/25 06:15:35;;;;;;;;;66.75;52.00;;;;;6.19;58.45;102682.84;2111355;27;47052;-61
2022/01/25 06:16:36;;;;;;;;;62.25;47.75;;;;;6.19;58.95;102684.59;2110848;27;47428;-61
2022/01/25 06:17:36;;;;;;;;;65.75;54.25;;;;;6.20;59.01;102684.63;2112069;27;47248;-61
2022/01/25 06:18:36;;;;;;;;;62.50;52.00;;;;;6.20;58.80;102682.00;2112121;27;47287;-61
2022/01/25 06:19:37;;;;;;;;;67.00;54.00;;;;;6.20;58.66;102683.72;2106393;27;47667;-61
2022/01/25 06:20:37;;;;;;;;;64.25;52.75;;;;;6.19;58.73;102681.94;2107782;27;46933;-60
2022/01/25 06:21:38;;;;;;;;;63.00;51.25;;;;;6.19;58.60;102684.59;2108183;27;47193;-61
2022/01/25 06:22:38;;;;;;;;;65.00;51.00;;;;;6.18;58.98;102683.69;2106738;27;45384;-61
2022/01/25 06:23:39;;;;;;;;;61.75;51.75;;;;;6.18;58.49;102681.06;2104515;27;47278;-61
2022/01/25 06:24:39;;;;;;;;;57.00;48.00;;;;;6.19;58.63;102684.59;2105031;27;46727;-61
2022/01/25 06:25:41;;;;;;;;;67.00;53.50;;;;;6.19;58.57;102687.22;2109045;27;47197;-62
2022/01/25 06:26:41;;;;;;;;;61.00;51.60;;;;;6.18;59.13;102686.34;2112230;27;48085;-61
2022/01/25 06:27:43;;;;;;;;;63.25;52.25;;;;;6.18;58.69;102691.59;2110429;27;47268;-61
2022/01/25 06:28:44;;;;;;;;;68.00;54.20;;;;;6.19;58.69;102695.13;2107289;27;47542;-60